createdAt,value
2019-03-12T00:02:51.377Z,72.58
2019-03-12T00:06:56.539Z,72.95
2019-03-12T00:11:01.683Z,72.83
2019-03-12T00:15:06.998Z,73.01
2019-03-12T00:19:12.199Z,73.12
2019-03-12T00:23:17.365Z,72.71
2019-03-12T00:27:22.624Z,72.98
2019-03-12T00:31:27.765Z,72.60
2019-03-12T00:35:32.968Z,72.35
2019-03-12T00:39:38.094Z,72.01
2019-03-12T00:43:43.456Z,71.43
2019-03-12T00:47:48.731Z,71.01
2019-03-12T00:51:53.896Z,70.80
2019-03-12T00:55:59.051Z,70.58
2019-03-12T01:00:04.472Z,70.21
2019-03-12T01:04:11.246Z,70.21
2019-03-12T01:08:16.333Z,69.68
2019-03-12T01:12:21.445Z,69.44
2019-03-12T01:16:26.631Z,68.71
2019-03-12T01:20:31.833Z,68.49
2019-03-12T01:24:37.954Z,67.91
2019-03-12T01:28:43.233Z,67.51
2019-03-12T01:32:48.761Z,67.70
2019-03-12T01:36:54.040Z,67.45
2019-03-12T01:40:59.197Z,67.59
2019-03-12T01:45:04.742Z,67.23
2019-03-12T01:49:09.990Z,67.38
2019-03-12T01:53:15.180Z,67.51
2019-03-12T01:57:20.426Z,67.68
2019-03-12T02:01:25.743Z,67.78
2019-03-12T02:05:31.121Z,67.65
2019-03-12T02:09:36.285Z,68.05
2019-03-12T02:13:41.448Z,68.17
2019-03-12T02:17:46.637Z,68.40
2019-03-12T02:21:51.779Z,68.55
2019-03-12T02:25:57.967Z,68.35
2019-03-12T02:30:03.119Z,68.80
2019-03-12T02:34:09.618Z,68.80
2019-03-12T02:38:14.798Z,68.40
2019-03-12T02:42:19.908Z,68.45
2019-03-12T02:46:25.183Z,68.45
2019-03-12T02:50:30.437Z,68.54
2019-03-12T02:54:35.682Z,68.65
2019-03-12T02:58:41.681Z,68.79
2019-03-12T03:02:47.932Z,69.16
2019-03-12T03:07:00.599Z,69.53
2019-03-12T03:11:05.779Z,69.35
2019-03-12T03:15:14.168Z,69.40
2019-03-12T03:19:19.582Z,70.08
2019-03-12T03:23:24.835Z,70.10
2019-03-12T03:27:30.136Z,70.51
2019-03-12T03:31:35.296Z,70.51
2019-03-12T03:35:40.418Z,70.97
2019-03-12T03:39:46.516Z,71.23
2019-03-12T03:43:53.234Z,71.56
2019-03-12T03:47:58.386Z,72.10
2019-03-12T03:52:03.889Z,72.09
2019-03-12T03:56:10.088Z,72.38
2019-03-12T04:00:17.509Z,72.22
2019-03-12T04:04:22.720Z,72.35
2019-03-12T04:08:27.912Z,72.64
2019-03-12T04:12:33.465Z,72.87
2019-03-12T04:16:38.736Z,73.18
2019-03-12T04:20:48.715Z,72.79
2019-03-12T04:24:53.885Z,73.17
2019-03-12T04:28:59.030Z,73.19
2019-03-12T04:33:04.501Z,73.37
2019-03-12T04:37:09.671Z,73.54
2019-03-12T04:41:15.189Z,73.71
2019-03-12T04:45:20.355Z,73.45
2019-03-12T04:49:25.547Z,73.55
2019-03-12T04:53:30.765Z,73.31
2019-03-12T04:57:36.037Z,73.19
2019-03-12T05:01:41.325Z,73.09
2019-03-12T05:05:46.683Z,72.92
2019-03-12T05:09:52.817Z,73.02
2019-03-12T05:14:22.601Z,73.12
2019-03-12T05:18:27.814Z,73.07
2019-03-12T05:22:32.916Z,72.80
2019-03-12T05:26:48.346Z,72.31
2019-03-12T05:30:53.579Z,72.37
2019-03-12T05:34:58.816Z,71.93
2019-03-12T05:39:06.640Z,71.71
2019-03-12T05:43:13.006Z,71.26
2019-03-12T05:47:18.182Z,71.12
2019-03-12T05:51:23.437Z,70.90
2019-03-12T05:55:28.636Z,70.72
2019-03-12T05:59:33.867Z,70.74
2019-03-12T06:03:39.273Z,70.74
2019-03-12T06:07:44.487Z,70.52
2019-03-12T06:11:49.741Z,70.52
2019-03-12T06:15:56.443Z,70.14
2019-03-12T06:20:01.618Z,70.04
2019-03-12T06:24:06.960Z,69.74
2019-03-12T06:28:14.920Z,69.38
2019-03-12T06:32:42.127Z,68.53
2019-03-12T06:37:06.902Z,68.54
2019-03-12T06:41:21.314Z,68.26
2019-03-12T06:45:44.636Z,67.54
2019-03-12T06:50:04.792Z,67.53
2019-03-12T06:54:35.444Z,67.01
2019-03-12T06:58:49.314Z,66.88
2019-03-12T07:03:13.041Z,66.07
2019-03-12T07:07:35.689Z,65.43
2019-03-12T07:11:46.547Z,64.01
2019-03-12T07:16:16.980Z,63.90
2019-03-12T07:20:53.388Z,62.41
2019-03-12T07:25:16.214Z,62.39
2019-03-12T07:29:34.766Z,61.86
2019-03-12T07:33:58.578Z,61.26
2019-03-12T07:38:20.851Z,61.17
2019-03-12T07:42:45.519Z,60.24
2019-03-12T07:47:05.779Z,60.38
2019-03-12T07:51:44.884Z,59.82
2019-03-12T07:56:02.164Z,59.38
2019-03-12T08:00:15.285Z,59.60
2019-03-12T08:04:30.941Z,59.33
2019-03-12T08:08:56.850Z,59.72
2019-03-12T08:13:19.457Z,59.80
2019-03-12T08:17:43.683Z,59.54
2019-03-12T08:22:07.789Z,58.21
2019-03-12T08:26:37.651Z,58.13
2019-03-12T08:31:11.233Z,57.53
2019-03-12T08:35:41.576Z,57.42
2019-03-12T08:39:53.689Z,57.15
2019-03-12T08:44:08.352Z,56.58
2019-03-12T08:48:27.831Z,56.08
2019-03-12T08:52:45.684Z,55.95
2019-03-12T08:57:05.559Z,55.35
2019-03-12T09:01:21.945Z,55.74
2019-03-12T09:05:46.448Z,55.48
2019-03-12T09:10:19.339Z,55.41
2019-03-12T09:14:53.526Z,54.71
2019-03-12T09:19:17.054Z,54.06
2019-03-12T09:23:49.472Z,54.32
2019-03-12T09:28:27.786Z,54.18
2019-03-12T09:33:02.674Z,53.69
2019-03-12T09:37:27.860Z,53.66
2019-03-12T09:41:51.348Z,53.42
2019-03-12T09:46:15.525Z,53.16
2019-03-12T09:50:49.758Z,53.09
2019-03-12T09:55:09.717Z,52.74
2019-03-12T09:59:34.204Z,51.58
2019-03-12T10:03:52.219Z,51.66
2019-03-12T10:08:13.791Z,51.16
2019-03-12T10:12:36.654Z,50.39
2019-03-12T10:17:13.047Z,49.25
2019-03-12T10:21:55.159Z,48.99
2019-03-12T10:26:19.216Z,48.54
2019-03-12T10:30:41.827Z,48.10
2019-03-12T10:35:05.940Z,47.52
2019-03-12T10:40:07.624Z,47.02
2019-03-12T10:44:27.671Z,47.75
2019-03-12T10:48:34.253Z,46.84
2019-03-12T10:52:42.190Z,46.82
2019-03-12T10:56:48.252Z,47.02
2019-03-12T11:00:53.486Z,47.02
2019-03-12T11:04:58.621Z,46.43
2019-03-12T11:09:07.927Z,46.50
2019-03-12T11:13:14.700Z,46.17
2019-03-12T11:17:20.011Z,45.13
2019-03-12T11:21:25.157Z,44.10
2019-03-12T11:25:30.328Z,44.10
2019-03-12T11:29:35.459Z,43.47
2019-03-12T11:33:40.793Z,43.16
2019-03-12T11:37:45.951Z,42.05
2019-03-12T11:41:52.114Z,42.20
2019-03-12T11:45:57.414Z,41.11
2019-03-12T11:50:02.551Z,41.21
2019-03-12T11:54:08.982Z,41.50
2019-03-12T11:58:14.069Z,41.04
2019-03-12T12:02:19.182Z,41.13
2019-03-12T12:06:24.464Z,40.80
2019-03-12T12:10:29.786Z,40.81
2019-03-12T12:14:34.938Z,40.64
2019-03-12T12:18:40.212Z,41.12
2019-03-12T12:22:45.388Z,40.21
2019-03-12T12:26:50.509Z,40.33
2019-03-12T12:30:55.668Z,40.21
2019-03-12T12:35:00.836Z,39.78
2019-03-12T12:39:07.691Z,40.26
2019-03-12T12:43:14.481Z,40.89
2019-03-12T12:47:19.950Z,40.74
2019-03-12T12:51:25.066Z,40.91
2019-03-12T12:55:30.166Z,41.02
2019-03-12T12:59:35.238Z,38.50
2019-03-12T13:03:40.477Z,37.29
2019-03-12T13:07:46.632Z,37.50
2019-03-12T13:11:52.032Z,38.96
2019-03-12T13:15:57.190Z,40.35
2019-03-12T13:20:04.844Z,40.33
2019-03-12T13:24:10.063Z,39.75
2019-03-12T13:28:15.239Z,37.88
2019-03-12T13:32:20.520Z,37.67
2019-03-12T13:36:25.695Z,38.65
2019-03-12T13:40:30.862Z,39.04
2019-03-12T13:44:35.986Z,38.00
2019-03-12T13:48:41.174Z,37.24
2019-03-12T13:52:46.422Z,36.79
2019-03-12T13:56:51.588Z,36.43
2019-03-12T14:00:56.800Z,36.51
2019-03-12T14:05:01.983Z,37.15
2019-03-12T14:09:07.590Z,38.24
2019-03-12T14:13:14.452Z,37.72
2019-03-12T14:17:19.657Z,38.37
2019-03-12T14:21:24.748Z,38.14
2019-03-12T14:25:29.891Z,37.86
2019-03-12T14:29:35.004Z,37.86
2019-03-12T14:33:40.178Z,37.15
2019-03-12T14:37:45.394Z,35.94
2019-03-12T14:41:50.447Z,36.72
2019-03-12T14:45:55.585Z,35.28
2019-03-12T14:50:01.656Z,34.95
2019-03-12T14:54:06.896Z,35.36
2019-03-12T14:58:12.069Z,35.58
2019-03-12T15:02:20.530Z,34.50
2019-03-12T15:06:25.660Z,35.03
2019-03-12T15:10:30.889Z,35.28
2019-03-12T15:14:36.281Z,35.73
2019-03-12T15:18:41.405Z,37.63
2019-03-12T15:22:46.807Z,38.53
2019-03-12T15:26:51.929Z,38.35
2019-03-12T15:30:57.064Z,38.18
2019-03-12T15:35:02.247Z,37.50
2019-03-12T15:39:09.077Z,36.82
2019-03-12T15:43:16.088Z,35.90
2019-03-12T15:47:21.222Z,36.20
2019-03-12T15:51:26.367Z,36.50
2019-03-12T15:55:31.609Z,36.61
2019-03-12T15:59:36.814Z,37.32
2019-03-12T16:03:43.738Z,38.34
2019-03-12T16:07:48.851Z,37.18
2019-03-12T16:11:53.963Z,37.99
2019-03-12T16:15:59.124Z,36.87
2019-03-12T16:20:04.733Z,37.23
2019-03-12T16:24:09.971Z,37.05
2019-03-12T16:28:15.052Z,37.32
2019-03-12T16:32:20.196Z,37.76
2019-03-12T16:36:25.357Z,38.02
2019-03-12T16:40:30.514Z,37.44
2019-03-12T16:44:35.591Z,36.82
2019-03-12T16:48:40.698Z,36.80
2019-03-12T16:52:48.134Z,37.37
2019-03-12T16:56:53.246Z,36.73
2019-03-12T17:00:58.493Z,37.46
2019-03-12T17:05:05.562Z,37.44
2019-03-12T17:09:10.599Z,37.10
2019-03-12T17:13:17.443Z,36.82
2019-03-12T17:17:22.569Z,37.27
2019-03-12T17:21:27.940Z,37.27
2019-03-12T17:25:33.017Z,36.83
2019-03-12T17:29:38.166Z,35.95
2019-03-12T17:33:43.390Z,36.44
2019-03-12T17:37:48.691Z,36.99
2019-03-12T17:41:59.907Z,36.82
2019-03-12T17:46:05.072Z,36.71
2019-03-12T17:50:10.675Z,37.10
2019-03-12T17:54:15.774Z,37.29
2019-03-12T17:58:21.843Z,37.55
2019-03-12T18:02:27.010Z,38.17
2019-03-12T18:06:34.868Z,38.72
2019-03-12T18:10:38.900Z,39.07
2019-03-12T18:14:44.061Z,39.21
2019-03-12T18:18:50.128Z,39.80
2019-03-12T18:22:55.247Z,39.22
2019-03-12T18:27:00.561Z,39.72
2019-03-12T18:31:05.683Z,39.66
2019-03-12T18:35:10.987Z,39.83
2019-03-12T18:39:17.246Z,39.66
2019-03-12T18:43:22.382Z,39.77
2019-03-12T18:47:27.556Z,39.78
2019-03-12T18:51:32.729Z,39.13
2019-03-12T18:56:04.910Z,38.57
2019-03-12T19:00:12.671Z,39.68
2019-03-12T19:04:18.101Z,41.73
2019-03-12T19:08:23.210Z,42.16
2019-03-12T19:12:28.302Z,43.55
2019-03-12T19:16:33.434Z,44.12
2019-03-12T19:20:38.541Z,43.79
2019-03-12T19:24:45.365Z,45.17
2019-03-12T19:28:50.607Z,46.74
2019-03-12T19:33:01.778Z,48.49
2019-03-12T19:37:06.976Z,50.61
2019-03-12T19:41:12.462Z,52.11
2019-03-12T19:45:17.628Z,54.13
2019-03-12T19:49:22.767Z,55.60
2019-03-12T19:53:27.935Z,55.59
2019-03-12T19:57:33.088Z,56.05
2019-03-12T20:01:39.089Z,54.63
2019-03-12T20:05:44.273Z,54.29
2019-03-12T20:10:12.646Z,53.73
2019-03-12T20:14:49.666Z,53.94
2019-03-12T20:19:28.009Z,53.42
2019-03-12T20:24:21.821Z,53.93
2019-03-12T20:29:05.062Z,54.60
2019-03-12T20:34:05.661Z,56.81
2019-03-12T20:38:54.454Z,57.84
2019-03-12T20:43:36.280Z,60.85
2019-03-12T20:48:03.398Z,64.01
2019-03-12T20:52:44.266Z,69.02
2019-03-12T20:57:29.111Z,73.56
2019-03-12T21:02:05.985Z,75.99
2019-03-12T21:06:48.612Z,76.96
2019-03-12T21:11:29.488Z,77.36
2019-03-12T21:16:11.337Z,77.24
2019-03-12T21:20:53.924Z,77.14
2019-03-12T21:25:39.156Z,77.22
2019-03-12T21:29:46.172Z,77.34
2019-03-12T21:33:51.295Z,76.58
2019-03-12T21:37:56.402Z,77.01
2019-03-12T21:42:01.551Z,77.05
2019-03-12T21:46:06.684Z,76.82
2019-03-12T21:50:11.892Z,76.22
2019-03-12T21:54:16.988Z,76.05
2019-03-12T21:58:22.082Z,76.25
2019-03-12T22:02:27.208Z,76.33
2019-03-12T22:06:32.332Z,75.83
2019-03-12T22:10:38.448Z,75.25
2019-03-12T22:14:43.625Z,75.57
2019-03-12T22:18:48.795Z,75.67
2019-03-12T22:23:04.266Z,74.93
2019-03-12T22:27:09.412Z,75.03
2019-03-12T22:31:14.527Z,75.47
2019-03-12T22:35:19.621Z,76.05
2019-03-12T22:39:24.819Z,76.05
2019-03-12T22:43:30.012Z,76.02
2019-03-12T22:47:35.384Z,75.29
2019-03-12T22:51:40.545Z,75.58
2019-03-12T22:55:45.654Z,74.67
2019-03-12T22:59:50.731Z,74.80
2019-03-12T23:04:13.687Z,75.01
2019-03-12T23:08:36.584Z,74.67
2019-03-12T23:12:42.956Z,74.49
2019-03-12T23:16:48.154Z,73.66
2019-03-12T23:20:53.658Z,73.10
2019-03-12T23:24:59.817Z,72.11
2019-03-12T23:29:05.096Z,71.98
2019-03-12T23:33:11.503Z,71.00
2019-03-12T23:37:16.689Z,70.08
2019-03-12T23:41:21.852Z,70.40
2019-03-12T23:45:26.979Z,70.01
2019-03-12T23:49:33.753Z,69.33
2019-03-12T23:53:38.884Z,68.73
2019-03-12T23:57:44.128Z,68.83
